Time;durP1;ratioP1;P1;durP2;ratioP2;P2;SDS_P1;SDS_P2;PMS_P1;PMS_P2;Temp;Humidity;BMP_temperature;BMP_pressure;BME280_temperature;BME280_humidity;BME280_pressure;Samples;Min_cycle;Max_cycle;Signal;HPM_P1;HPM_P2
2023/06/30 00:00:52;;;;;;;9.20;3.23;;;14.70;99.90;14.00;99963;;;;569919;249;24071;-78
2023/06/30 00:03:25;;;;;;;3.37;2.73;;;14.70;99.90;14.10;99949;;;;569853;249;24044;-78
2023/06/30 00:05:53;;;;;;;3.93;2.73;;;14.70;99.90;14.10;99957;;;;570222;249;24060;-78
2023/06/30 00:08:21;;;;;;;3.57;2.30;;;14.70;99.90;14.10;99946;;;;569802;249;24059;-77
2023/06/30 00:10:49;;;;;;;2.47;2.37;;;14.70;99.90;14.10;99946;;;;569737;249;24094;-78
2023/06/30 00:13:16;;;;;;;4.27;2.37;;;14.80;99.90;14.10;99946;;;;569894;249;24059;-79
2023/06/30 00:15:45;;;;;;;2.60;2.40;;;14.80;99.90;14.10;99944;;;;569799;249;24087;-78
2023/06/30 00:18:12;;;;;;;2.90;2.07;;;14.80;99.90;14.10;99948;;;;569610;249;24071;-78
2023/06/30 00:20:40;;;;;;;3.27;2.47;;;14.80;99.90;14.10;99941;;;;570380;248;24057;-78
2023/06/30 00:23:10;;;;;;;2.70;2.27;;;14.80;99.90;14.10;99940;;;;570956;248;24067;-78
2023/06/30 00:25:36;;;;;;;2.60;2.27;;;14.80;99.90;14.20;99937;;;;570727;248;24152;-78
2023/06/30 00:28:04;;;;;;;3.17;2.20;;;14.80;99.90;14.20;99937;;;;570545;248;24056;-77
2023/06/30 00:30:33;;;;;;;2.63;2.43;;;14.80;99.90;14.20;99931;;;;579260;247;25089;-77
2023/06/30 00:33:00;;;;;;;2.57;2.10;;;14.80;99.90;14.30;99929;;;;570287;248;24104;-78
2023/06/30 00:35:28;;;;;;;3.37;2.80;;;14.90;99.90;14.40;99917;;;;565304;248;46010;-78
2023/06/30 00:37:56;;;;;;;2.00;1.90;;;15.00;99.90;14.40;99923;;;;570332;248;24101;-78
2023/06/30 00:40:24;;;;;;;2.60;2.40;;;15.00;99.90;14.50;99920;;;;570010;249;24068;-79
2023/06/30 00:42:52;;;;;;;2.57;2.37;;;15.10;99.90;14.60;99921;;;;570116;249;24150;-78
2023/06/30 00:45:21;;;;;;;2.60;2.30;;;15.30;99.90;14.70;99916;;;;570033;249;24064;-77
2023/06/30 00:47:49;;;;;;;2.03;1.93;;;15.30;99.90;14.70;99911;;;;569959;249;25117;-78
2023/06/30 00:50:17;;;;;;;2.03;1.90;;;15.40;99.90;14.80;99912;;;;570059;249;24125;-77
2023/06/30 00:52:47;;;;;;;3.20;2.60;;;15.40;99.90;14.80;99909;;;;569979;249;24077;-77
2023/06/30 00:55:16;;;;;;;3.30;2.57;;;15.50;99.90;14.80;99905;;;;569835;249;24110;-78
2023/06/30 00:57:40;;;;;;;2.60;2.40;;;15.40;99.90;14.80;99903;;;;569142;249;24067;-78
2023/06/30 01:00:12;;;;;;;2.40;2.30;;;15.40;99.90;14.90;99907;;;;569854;249;24061;-78
2023/06/30 01:03:01;;;;;;;2.60;2.40;;;15.50;99.90;15.00;99906;;;;569808;249;24077;-78
2023/06/30 01:05:26;;;;;;;2.17;2.07;;;15.60;99.90;15.10;99905;;;;569762;249;24151;-78
2023/06/30 01:08:09;;;;;;;3.13;2.70;;;15.60;99.90;15.10;99907;;;;569866;249;24066;-79
2023/06/30 01:10:38;;;;;;;2.33;2.20;;;15.80;99.90;15.20;99895;;;;577184;249;24066;-78
2023/06/30 01:13:06;;;;;;;3.03;2.60;;;15.90;99.90;15.30;99895;;;;569776;249;25231;-78
2023/06/30 01:15:34;;;;;;;3.43;3.13;;;15.90;99.90;15.30;99890;;;;569585;249;24055;-79
2023/06/30 01:18:02;;;;;;;2.90;2.70;;;16.00;99.90;15.40;99895;;;;569783;249;24128;-78
2023/06/30 01:20:33;;;;;;;3.27;2.67;;;16.00;99.90;15.40;99891;;;;569850;249;24071;-79
2023/06/30 01:23:17;;;;;;;3.23;2.70;;;16.10;99.90;15.40;99883;;;;569259;249;24089;-78
2023/06/30 01:25:45;;;;;;;3.23;2.40;;;16.00;99.90;15.50;99888;;;;569522;249;24078;-78
2023/06/30 01:28:12;;;;;;;3.47;2.90;;;16.10;99.90;15.50;99881;;;;578323;248;24093;-78
2023/06/30 01:30:41;;;;;;;3.03;2.70;;;16.10;99.90;15.50;99879;;;;569669;249;24060;-79
2023/06/30 01:33:10;;;;;;;3.03;2.83;;;16.00;99.90;15.50;99877;;;;570858;248;24119;-78
2023/06/30 01:35:37;;;;;;;2.53;2.33;;;16.10;99.90;15.50;99876;;;;570812;248;24072;-78
2023/06/30 01:38:05;;;;;;;4.30;2.37;;;16.10;99.90;15.50;99882;;;;570664;248;24161;-78
2023/06/30 01:40:33;;;;;;;2.20;2.00;;;16.00;99.90;15.40;99877;;;;570927;248;24061;-79
2023/06/30 01:43:00;;;;;;;5.27;3.13;;;16.00;99.90;15.40;99879;;;;570655;248;24079;-79
2023/06/30 01:45:28;;;;;;;3.00;2.70;;;16.00;99.90;15.40;99885;;;;570686;248;24025;-79
2023/06/30 01:48:00;;;;;;;2.23;2.13;;;16.00;99.90;15.40;99882;;;;570591;248;24103;-79
2023/06/30 01:50:28;;;;;;;4.03;2.70;;;16.00;99.90;15.40;99882;;;;569744;249;24049;-78
2023/06/30 01:52:53;;;;;;;2.30;2.20;;;16.00;99.90;15.40;99875;;;;569856;249;24064;-78
2023/06/30 01:55:21;;;;;;;2.63;2.50;;;16.00;99.90;15.40;99879;;;;570387;249;24134;-78
2023/06/30 01:57:49;;;;;;;2.80;2.60;;;16.00;99.90;15.40;99878;;;;570399;249;24072;-77
2023/06/30 02:00:19;;;;;;;3.00;2.10;;;16.00;99.90;15.40;99882;;;;570020;249;24107;-78
2023/06/30 02:02:44;;;;;;;2.53;2.33;;;16.00;99.90;15.50;99878;;;;578523;248;24061;-78
2023/06/30 02:05:17;;;;;;;3.37;2.50;;;16.10;99.90;15.50;99882;;;;570067;249;24065;-77
2023/06/30 02:07:42;;;;;;;9.17;3.03;;;16.10;99.90;15.50;99883;;;;567469;249;24069;-78
2023/06/30 02:10:12;;;;;;;8.27;3.13;;;16.10;99.90;15.60;99879;;;;570184;249;24061;-78
2023/06/30 02:12:37;;;;;;;9.10;2.60;;;16.20;99.90;15.70;99873;;;;578472;248;24095;-78
2023/06/30 02:15:08;;;;;;;7.70;2.67;;;16.30;99.90;15.70;99868;;;;570076;249;24091;-78
2023/06/30 02:17:33;;;;;;;5.70;2.37;;;16.30;99.90;15.80;99873;;;;569561;249;24044;-78
2023/06/30 02:20:01;;;;;;;8.93;2.93;;;16.40;99.90;15.90;99879;;;;569952;249;24052;-78
2023/06/30 02:22:29;;;;;;;4.67;2.50;;;16.50;99.90;16.00;99873;;;;569950;249;24066;-77
2023/06/30 02:24:56;;;;;;;3.80;2.50;;;16.50;99.90;16.10;99872;;;;570170;249;24090;-78
2023/06/30 02:27:28;;;;;;;10.50;2.70;;;16.60;99.90;16.10;99878;;;;569908;249;24059;-78
2023/06/30 02:29:55;;;;;;;3.10;2.90;;;16.70;99.90;16.20;99874;;;;569236;249;24092;-78
2023/06/30 02:32:20;;;;;;;2.50;2.30;;;16.70;99.90;16.20;99867;;;;576935;249;24083;-78
2023/06/30 02:34:48;;;;;;;2.57;2.33;;;16.80;99.90;16.30;99867;;;;569752;249;24056;-78
2023/06/30 02:37:16;;;;;;;6.80;2.77;;;16.90;99.90;16.30;99862;;;;569914;249;24106;-78
2023/06/30 02:39:44;;;;;;;2.57;2.40;;;16.90;99.90;16.40;99853;;;;569720;249;24060;-79
2023/06/30 02:42:12;;;;;;;2.80;2.60;;;16.90;99.90;16.40;99857;;;;570134;249;24052;-78
2023/06/30 02:44:40;;;;;;;5.33;2.57;;;17.00;99.90;16.50;99856;;;;571175;248;24053;-78
2023/06/30 02:47:08;;;;;;;3.20;3.00;;;17.00;99.90;16.50;99855;;;;571243;248;24095;-78
2023/06/30 02:49:36;;;;;;;2.47;2.27;;;17.00;99.90;16.50;99856;;;;570950;248;24045;-79
2023/06/30 02:52:03;;;;;;;2.57;2.37;;;17.10;99.90;16.50;99856;;;;570919;248;24058;-79
2023/06/30 02:54:31;;;;;;;2.50;2.30;;;17.10;99.90;16.50;99842;;;;579433;247;24029;-78
2023/06/30 02:56:59;;;;;;;2.37;2.10;;;17.10;99.90;16.60;99852;;;;570695;248;24064;-78
2023/06/30 02:59:27;;;;;;;3.33;2.53;;;17.10;99.90;16.60;99857;;;;570187;248;24115;-78
2023/06/30 03:01:55;;;;;;;2.40;2.30;;;17.10;99.90;16.60;99851;;;;570308;249;24052;-79
2023/06/30 03:04:23;;;;;;;2.37;2.10;;;17.20;99.90;16.70;99857;;;;569977;249;24074;-79
2023/06/30 03:06:51;;;;;;;2.53;2.43;;;17.20;99.90;16.70;99859;;;;570169;249;24063;-79
2023/06/30 03:09:19;;;;;;;2.77;2.50;;;17.30;99.90;16.80;99850;;;;570079;249;23107;-78
2023/06/30 03:11:47;;;;;;;2.60;2.40;;;17.40;99.90;16.80;99846;;;;570413;249;24052;-78
2023/06/30 03:14:15;;;;;;;2.00;1.90;;;17.30;99.90;16.80;99848;;;;570335;249;24057;-79
2023/06/30 03:16:43;;;;;;;2.67;2.37;;;17.40;99.90;17.00;99843;;;;570445;249;24037;-78
2023/06/30 03:19:11;;;;;;;2.60;2.40;;;17.50;99.90;17.20;99850;;;;570439;249;24054;-78
2023/06/30 03:21:40;;;;;;;3.13;2.80;;;18.00;99.90;17.60;99849;;;;570115;249;24074;-78
2023/06/30 03:24:08;;;;;;;2.30;2.10;;;18.00;99.90;18.10;99844;;;;570186;249;24076;-79
2023/06/30 03:26:36;;;;;;;2.70;2.50;;;18.50;99.90;18.60;99847;;;;570167;249;24052;-79
2023/06/30 03:29:04;;;;;;;2.50;2.30;;;19.00;99.90;19.00;99846;;;;570201;249;24061;-77
2023/06/30 03:31:32;;;;;;;2.50;2.37;;;19.40;99.90;19.20;99845;;;;570141;249;24052;-78
2023/06/30 03:34:00;;;;;;;3.37;2.43;;;19.70;99.90;19.40;99846;;;;570131;249;23078;-78
2023/06/30 03:36:27;;;;;;;2.47;2.33;;;19.90;99.90;19.40;99851;;;;570168;249;24056;-77
2023/06/30 03:38:55;;;;;;;2.97;2.50;;;19.90;99.90;19.70;99840;;;;570189;249;24050;-78
2023/06/30 03:41:23;;;;;;;5.40;2.87;;;20.20;99.90;20.10;99835;;;;570219;249;23075;-79
2023/06/30 03:43:52;;;;;;;2.63;2.43;;;20.80;99.90;20.40;99842;;;;569833;249;23082;-79
2023/06/30 03:46:20;;;;;;;3.20;2.53;;;20.80;99.90;20.80;99839;;;;569717;249;24078;-79
2023/06/30 03:48:48;;;;;;;4.43;2.67;;;21.20;99.90;21.30;99841;;;;569889;249;24111;-80
2023/06/30 03:51:16;;;;;;;5.93;3.10;;;21.70;99.90;21.70;99848;;;;578457;247;25146;-79
2023/06/30 03:53:44;;;;;;;3.73;2.80;;;22.10;99.90;22.00;99841;;;;569936;249;24040;-79
2023/06/30 03:56:12;;;;;;;4.30;2.50;;;22.50;99.90;22.20;99841;;;;570814;248;24082;-77
2023/06/30 03:58:39;;;;;;;6.53;3.07;;;22.70;99.90;22.40;99838;;;;570818;248;24102;-78
2023/06/30 04:01:07;;;;;;;3.77;2.97;;;22.90;99.90;22.80;99834;;;;571000;248;24107;-78
2023/06/30 04:03:35;;;;;;;2.80;2.60;;;23.30;99.90;23.40;99837;;;;570949;248;24044;-79
2023/06/30 04:06:03;;;;;;;2.70;2.50;;;23.90;99.90;24.20;99844;;;;570673;248;23085;-78
2023/06/30 04:08:31;;;;;;;2.70;2.50;;;24.60;99.90;24.90;99842;;;;570660;248;23082;-78
2023/06/30 04:10:59;;;;;;;2.97;2.77;;;25.30;99.90;25.30;99845;;;;570568;248;23105;-79
2023/06/30 04:13:28;;;;;;;3.77;2.40;;;26.00;99.90;25.40;99851;;;;570284;249;23097;-79
2023/06/30 04:15:56;;;;;;;3.20;2.80;;;26.00;99.90;25.00;99848;;;;570388;249;23059;-79
2023/06/30 04:18:23;;;;;;;4.60;3.00;;;25.80;99.90;24.40;99848;;;;570443;249;24053;-78
2023/06/30 04:20:51;;;;;;;3.57;3.00;;;25.30;99.90;23.90;99840;;;;570413;249;23120;-79
2023/06/30 04:23:19;;;;;;;3.20;2.43;;;24.70;99.90;23.30;99837;;;;570411;249;24081;-79
2023/06/30 04:25:48;;;;;;;9.47;3.40;;;24.10;99.90;22.90;99838;;;;570443;249;23066;-77
2023/06/30 04:28:15;;;;;;;8.30;3.20;;;23.60;99.90;22.50;99840;;;;570238;249;24030;-79
2023/06/30 04:30:43;;;;;;;9.70;3.40;;;23.20;99.90;22.20;99846;;;;570420;249;23066;-79
2023/06/30 04:33:11;;;;;;;4.93;2.70;;;22.80;99.90;21.90;99836;;;;570129;249;24047;-79
2023/06/30 04:35:43;;;;;;;5.70;2.80;;;22.50;99.90;21.60;99848;;;;570175;249;24060;-79
2023/06/30 04:38:10;;;;;;;5.40;2.77;;;22.20;99.90;21.30;99838;;;;569811;249;24079;-79
2023/06/30 04:40:35;;;;;;;6.60;3.00;;;21.90;99.90;21.10;99843;;;;570559;249;24060;-79
2023/06/30 04:43:11;;;;;;;3.57;2.93;;;21.60;99.90;20.90;99838;;;;570027;249;24068;-77
2023/06/30 04:45:30;;;;;;;24.37;4.83;;;21.40;99.90;20.70;99838;;;;569103;249;23102;-78
2023/06/30 04:47:58;;;;;;;22.83;4.40;;;21.20;99.90;20.50;99830;;;;569936;249;24054;-78
2023/06/30 04:50:26;;;;;;;10.33;3.47;;;21.00;99.90;20.50;99830;;;;569889;249;24079;-77
2023/06/30 04:52:55;;;;;;;7.53;4.30;;;20.90;99.90;20.40;99827;;;;569941;249;24052;-78
2023/06/30 04:55:23;;;;;;;14.03;3.70;;;20.80;99.90;20.50;99826;;;;569878;249;24065;-78
2023/06/30 04:57:53;;;;;;;6.23;4.10;;;20.90;99.90;20.50;99829;;;;569802;249;24113;-78
2023/06/30 05:00:22;;;;;;;6.57;3.57;;;20.90;99.90;20.50;99825;;;;569955;249;24061;-79
2023/06/30 05:02:47;;;;;;;4.33;3.10;;;20.90;99.90;20.70;99826;;;;578487;248;24064;-79
2023/06/30 05:05:15;;;;;;;3.67;3.03;;;21.10;99.90;20.80;99828;;;;570134;249;24101;-78
2023/06/30 05:07:43;;;;;;;7.00;3.07;;;21.40;99.90;21.00;99828;;;;571059;248;24049;-78
2023/06/30 05:10:14;;;;;;;7.83;3.50;;;21.40;99.90;21.10;99827;;;;571285;248;24054;-78
2023/06/30 05:12:39;;;;;;;16.53;3.97;;;21.60;99.90;21.30;99827;;;;571080;248;23073;-78
2023/06/30 05:15:11;;;;;;;7.73;3.17;;;21.70;99.90;21.40;99829;;;;570540;248;24059;-78
2023/06/30 05:17:35;;;;;;;9.07;3.60;;;21.80;99.90;21.50;99834;;;;565092;248;24172;-77
2023/06/30 05:20:06;;;;;;;3.27;2.87;;;21.90;99.90;21.50;99830;;;;570805;248;24037;-78
2023/06/30 05:22:34;;;;;;;8.47;3.23;;;22.00;99.90;21.50;99829;;;;579132;248;24061;-78
2023/06/30 05:24:59;;;;;;;10.70;4.03;;;22.00;99.90;21.50;99829;;;;570689;249;24064;-79
2023/06/30 05:27:27;;;;;;;11.50;3.37;;;22.00;99.90;21.50;99830;;;;570443;249;24058;-79
2023/06/30 05:29:55;;;;;;;8.50;3.30;;;21.90;99.90;21.70;99826;;;;570403;249;24045;-79
2023/06/30 05:32:22;;;;;;;6.13;3.13;;;22.10;99.90;21.90;99829;;;;570399;249;24058;-78
2023/06/30 05:34:55;;;;;;;17.40;3.83;;;22.50;99.90;22.10;99832;;;;570430;249;24091;-78
2023/06/30 05:37:20;;;;;;;11.60;3.50;;;22.80;99.90;22.30;99829;;;;570070;249;24050;-78
2023/06/30 05:39:48;;;;;;;11.47;3.30;;;22.80;99.90;22.60;99836;;;;570397;249;24115;-77
2023/06/30 05:42:16;;;;;;;16.13;3.73;;;23.00;99.90;22.70;99836;;;;570399;249;24049;-79
2023/06/30 05:44:44;;;;;;;5.43;3.57;;;23.20;99.90;22.90;99833;;;;570141;249;24058;-78
2023/06/30 05:47:14;;;;;;;16.77;4.13;;;23.40;99.90;23.00;99834;;;;569862;249;24083;-78
2023/06/30 05:49:42;;;;;;;6.87;3.40;;;23.50;99.90;23.20;99829;;;;569678;249;24058;-79
2023/06/30 05:52:10;;;;;;;11.60;3.73;;;23.70;99.90;23.40;99829;;;;569912;249;24044;-79
2023/06/30 05:54:41;;;;;;;12.33;3.83;;;23.90;99.90;23.50;99830;;;;570154;249;24048;-78
2023/06/30 05:57:06;;;;;;;5.70;3.20;;;24.00;99.90;23.60;99832;;;;569864;249;23073;-78
2023/06/30 05:59:34;;;;;;;15.60;3.23;;;24.10;99.90;23.60;99833;;;;570149;249;24066;-78
2023/06/30 06:02:02;;;;;;;8.40;3.40;;;24.10;99.90;23.70;99831;;;;570078;249;23077;-79
2023/06/30 06:04:29;;;;;;;8.07;3.00;;;24.20;99.90;23.90;99827;;;;570197;249;23061;-80
2023/06/30 06:07:01;;;;;;;10.70;3.40;;;24.40;99.90;24.10;99834;;;;570170;249;23058;-79
2023/06/30 06:09:25;;;;;;;8.03;3.40;;;24.50;99.90;24.20;99828;;;;569920;249;24055;-79
2023/06/30 06:11:53;;;;;;;12.27;3.50;;;24.70;99.90;24.20;99833;;;;570192;249;24060;-79
2023/06/30 06:14:21;;;;;;;5.23;3.43;;;24.70;99.90;24.10;99833;;;;570112;249;23094;-79
2023/06/30 06:16:49;;;;;;;10.67;3.27;;;24.70;99.90;24.00;99832;;;;569812;249;24061;-79
2023/06/30 06:19:20;;;;;;;11.67;3.20;;;24.50;99.90;23.90;99826;;;;571068;248;23071;-78
2023/06/30 06:21:45;;;;;;;7.23;3.00;;;24.40;99.90;23.80;99834;;;;571094;248;24076;-79
2023/06/30 06:24:13;;;;;;;5.87;3.00;;;24.30;99.90;23.70;99826;;;;570979;248;23077;-79
2023/06/30 06:26:41;;;;;;;4.33;3.10;;;24.20;99.90;23.70;99831;;;;570938;248;24053;-80
2023/06/30 06:29:12;;;;;;;8.90;3.20;;;24.10;99.90;23.60;99839;;;;570676;248;23082;-78
2023/06/30 06:31:37;;;;;;;3.40;3.10;;;24.10;99.90;23.60;99836;;;;579066;247;23069;-79
2023/06/30 06:34:05;;;;;;;24.93;4.00;;;24.10;99.90;23.60;99830;;;;570644;248;24054;-78
2023/06/30 06:36:33;;;;;;;5.57;3.20;;;24.10;99.90;23.70;99835;;;;570605;249;23062;-78
2023/06/30 06:39:01;;;;;;;7.90;3.30;;;24.20;99.90;23.90;99836;;;;570398;249;24033;-79
2023/06/30 06:41:29;;;;;;;3.97;3.50;;;24.30;99.90;24.00;99835;;;;570446;249;24038;-78
2023/06/30 06:43:57;;;;;;;9.00;3.67;;;24.50;99.90;24.10;99839;;;;570456;249;24052;-78
2023/06/30 06:46:26;;;;;;;12.90;3.77;;;24.60;99.90;24.20;99838;;;;570432;249;23072;-78
2023/06/30 06:48:54;;;;;;;8.20;3.70;;;24.70;99.90;24.40;99837;;;;570053;249;24072;-78
2023/06/30 06:51:24;;;;;;;5.90;3.10;;;24.80;99.90;24.40;99838;;;;570128;249;24075;-79
2023/06/30 06:53:49;;;;;;;11.23;4.03;;;24.90;99.90;24.50;99838;;;;570071;249;23108;-79
2023/06/30 06:56:17;;;;;;;26.33;5.10;;;25.00;99.90;24.50;99834;;;;569708;249;24146;-78
2023/06/30 06:58:46;;;;;;;7.57;3.77;;;24.90;99.90;24.40;99835;;;;569901;249;23087;-79
2023/06/30 07:01:14;;;;;;;8.60;3.40;;;24.90;99.90;24.30;99837;;;;570060;249;23069;-79
2023/06/30 07:03:42;;;;;;;13.73;3.90;;;24.80;99.90;24.20;99849;;;;569976;249;24082;-79
2023/06/30 07:06:10;;;;;;;13.43;4.17;;;24.70;99.90;24.10;99839;;;;569814;249;23074;-78
2023/06/30 07:08:39;;;;;;;13.73;4.10;;;24.60;99.90;23.90;99836;;;;569706;249;24102;-79
2023/06/30 07:11:06;;;;;;;16.07;4.30;;;24.40;99.90;23.70;99837;;;;569743;249;23092;-78
2023/06/30 07:13:34;;;;;;;10.80;4.67;;;24.00;99.90;23.50;99843;;;;569769;249;23116;-78
2023/06/30 07:16:03;;;;;;;14.43;4.13;;;23.80;99.90;23.30;99839;;;;569826;249;23100;-78
2023/06/30 07:18:32;;;;;;;4.20;3.77;;;23.80;99.90;23.10;99835;;;;569667;249;23073;-78
2023/06/30 07:20:59;;;;;;;7.73;4.00;;;23.60;99.90;23.00;99830;;;;570210;249;24053;-78
2023/06/30 07:23:26;;;;;;;9.20;5.23;;;23.50;99.90;23.00;99832;;;;570242;249;24055;-78
2023/06/30 07:25:55;;;;;;;7.60;3.73;;;23.40;99.90;23.00;99833;;;;570324;249;24048;-78
2023/06/30 07:28:23;;;;;;;12.63;4.17;;;23.40;99.90;23.10;99833;;;;570300;249;24202;-78
2023/06/30 07:30:51;;;;;;;9.73;3.50;;;23.50;99.90;23.20;99829;;;;571340;248;24051;-78
2023/06/30 07:33:19;;;;;;;6.50;3.77;;;23.60;99.90;23.30;99840;;;;571256;248;24063;-78
2023/06/30 07:35:47;;;;;;;9.63;3.57;;;23.60;99.90;23.30;99838;;;;570872;248;24056;-78
2023/06/30 07:38:15;;;;;;;11.27;3.47;;;23.70;99.90;23.30;99836;;;;570902;248;24052;-78
2023/06/30 07:40:43;;;;;;;10.10;3.50;;;23.80;99.90;23.30;99836;;;;574409;244;24128;-76
2023/06/30 07:43:11;;;;;;;12.10;4.10;;;23.80;99.90;23.40;99839;;;;585922;241;24201;-79
2023/06/30 07:45:39;;;;;;;19.60;5.07;;;23.80;99.90;23.40;99840;;;;575218;246;23090;-79
2023/06/30 07:48:07;;;;;;;6.03;3.63;;;23.90;99.90;23.50;99835;;;;583589;246;23091;-79
2023/06/30 07:50:35;;;;;;;20.07;3.73;;;23.90;99.90;23.40;99837;;;;583515;246;23136;-82
2023/06/30 07:53:08;;;;;;;5.33;3.73;;;23.90;99.90;23.30;99837;;;;583620;243;24108;-81
2023/06/30 07:55:32;;;;;;;4.23;3.37;;;23.80;99.90;23.30;99836;;;;583214;243;24154;-80
2023/06/30 07:57:59;;;;;;;11.93;3.77;;;23.70;99.90;23.20;99833;;;;583066;244;24150;-85
2023/06/30 08:00:29;;;;;;;8.17;3.73;;;23.70;99.90;23.20;99827;;;;574236;246;24072;-81
2023/06/30 08:02:55;;;;;;;15.17;4.60;;;23.60;99.90;23.20;99827;;;;585029;242;23101;-84
2023/06/30 08:05:22;;;;;;;13.10;4.20;;;23.60;99.90;23.20;99823;;;;584947;242;24038;-81
2023/06/30 08:07:50;;;;;;;15.23;3.90;;;23.60;99.90;23.20;99831;;;;584623;242;24058;-79
2023/06/30 08:10:18;;;;;;;9.63;3.47;;;23.70;99.90;23.20;99835;;;;584666;242;23062;-80
2023/06/30 08:12:47;;;;;;;5.03;3.20;;;23.70;99.90;23.30;99830;;;;589828;242;23078;-84
2023/06/30 08:15:15;;;;;;;16.40;4.03;;;23.70;99.90;23.30;99829;;;;584559;242;24101;-82
2023/06/30 08:17:46;;;;;;;12.80;4.20;;;23.80;99.90;23.30;99827;;;;584443;242;23076;-80
2023/06/30 08:20:11;;;;;;;6.43;3.30;;;23.80;99.90;23.40;99824;;;;593308;242;24070;-82
2023/06/30 08:22:39;;;;;;;10.33;3.57;;;23.80;99.90;23.50;99828;;;;590116;242;24055;-82
2023/06/30 08:25:09;;;;;;;9.33;4.13;;;23.90;99.90;23.60;99826;;;;584931;242;23077;-80
2023/06/30 08:27:34;;;;;;;7.03;3.67;;;24.00;99.90;23.70;99823;;;;590291;242;23090;-85
2023/06/30 08:30:06;;;;;;;12.50;3.63;;;24.10;99.90;23.80;99820;;;;589680;242;23056;-81
2023/06/30 08:32:30;;;;;;;5.97;3.37;;;24.30;99.90;24.00;99830;;;;593929;242;23070;-84
2023/06/30 08:34:58;;;;;;;5.13;3.67;;;24.40;99.90;24.20;99821;;;;584801;242;24048;-76
2023/06/30 08:37:26;;;;;;;12.17;3.60;;;24.60;99.90;24.40;99823;;;;584784;242;23072;-76
2023/06/30 08:39:54;;;;;;;10.33;4.40;;;24.80;99.90;24.60;99808;;;;584770;242;24058;-75
2023/06/30 08:42:25;;;;;;;7.53;4.63;;;25.10;99.90;24.80;99805;;;;586040;241;23170;-81
2023/06/30 08:44:52;;;;;;;9.90;3.67;;;25.30;99.90;24.90;99804;;;;586078;241;23079;-76
2023/06/30 08:47:18;;;;;;;7.00;3.63;;;25.40;99.90;25.00;99801;;;;594555;241;23063;-75
2023/06/30 08:49:48;;;;;;;10.00;4.03;;;25.50;99.90;25.10;99804;;;;586566;241;24081;-81
2023/06/30 08:52:16;;;;;;;5.87;3.90;;;25.50;99.90;25.20;99802;;;;584882;241;23147;-75
2023/06/30 08:54:42;;;;;;;3.67;3.30;;;25.70;99.90;25.20;99800;;;;585482;241;24158;-75
2023/06/30 08:57:15;;;;;;;5.63;3.23;;;25.70;99.90;25.20;99796;;;;583056;241;24054;-77
2023/06/30 08:59:38;;;;;;;4.97;3.70;;;25.70;99.90;25.20;99807;;;;590078;242;23170;-84
2023/06/30 09:02:10;;;;;;;8.10;3.60;;;25.70;99.90;25.20;99805;;;;585045;242;24101;-77
2023/06/30 09:04:38;;;;;;;6.33;3.43;;;25.70;99.90;25.20;99805;;;;593577;242;23146;-76
2023/06/30 09:07:06;;;;;;;7.40;3.57;;;25.70;99.90;25.20;99809;;;;584602;242;23075;-77
2023/06/30 09:09:30;;;;;;;5.93;2.77;;;25.70;99.90;25.30;99810;;;;593280;242;23078;-80
2023/06/30 09:12:00;;;;;;;4.83;3.37;;;25.70;99.90;25.30;99818;;;;584367;242;23083;-82
2023/06/30 09:14:26;;;;;;;4.57;2.90;;;25.80;99.90;25.30;99807;;;;589275;241;23070;-75
2023/06/30 09:16:54;;;;;;;7.90;3.30;;;25.70;99.90;25.20;99809;;;;584607;242;23093;-75
2023/06/30 09:19:25;;;;;;;7.00;3.07;;;25.70;99.90;25.20;99810;;;;593526;242;23078;-77
2023/06/30 09:21:51;;;;;;;5.07;3.10;;;25.60;99.90;25.10;99820;;;;584521;242;23079;-76
2023/06/30 09:24:19;;;;;;;10.20;3.10;;;25.60;99.90;25.10;99820;;;;584498;242;24111;-75
2023/06/30 09:26:50;;;;;;;15.40;3.90;;;25.50;99.90;24.90;99826;;;;584509;242;23121;-76
2023/06/30 09:29:15;;;;;;;5.70;3.47;;;25.40;99.90;24.80;99824;;;;584111;242;23083;-78
2023/06/30 09:31:46;;;;;;;21.60;4.20;;;25.30;99.90;24.50;99824;;;;584482;242;23060;-78
2023/06/30 09:34:10;;;;;;;8.03;3.43;;;25.10;99.90;24.40;99826;;;;584116;242;24058;-77
2023/06/30 09:36:48;;;;;;;5.60;3.10;;;24.80;99.90;24.30;99827;;;;584452;242;24085;-77
2023/06/30 09:39:16;;;;;;;9.43;3.67;;;24.70;99.90;24.30;99833;;;;583977;242;23200;-79
2023/06/30 09:41:44;;;;;;;4.33;3.27;;;24.70;99.90;24.20;99838;;;;584342;242;23076;-76
2023/06/30 09:44:13;;;;;;;5.47;3.90;;;24.40;99.90;24.00;99838;;;;584479;242;23071;-79
2023/06/30 09:46:49;;;;;;;5.03;3.90;;;24.40;99.90;23.90;99837;;;;584209;242;23123;-78
2023/06/30 09:49:35;;;;;;;8.53;4.43;;;24.30;99.90;23.70;99836;;;;584034;242;24135;-80
2023/06/30 09:52:06;;;;;;;6.43;3.87;;;24.20;99.90;23.60;99831;;;;589233;242;24090;-82
2023/06/30 09:54:35;;;;;;;4.63;4.17;;;24.10;99.90;23.50;99827;;;;591094;241;23128;-80
2023/06/30 09:57:05;;;;;;;7.67;4.27;;;24.00;99.90;23.30;99827;;;;585783;241;23110;-77
2023/06/30 09:59:30;;;;;;;4.83;4.43;;;23.80;99.90;23.10;99828;;;;593988;241;24090;-76
2023/06/30 10:01:58;;;;;;;6.30;4.27;;;23.40;99.90;22.90;99829;;;;585268;241;24163;-79
2023/06/30 10:04:29;;;;;;;5.80;4.80;;;23.40;99.90;22.70;99828;;;;585054;241;24078;-78
2023/06/30 10:06:58;;;;;;;4.70;4.27;;;23.20;99.90;22.50;99825;;;;589230;241;24126;-78
2023/06/30 10:09:25;;;;;;;5.77;4.83;;;23.10;99.90;22.50;99828;;;;589403;241;24116;-82
2023/06/30 10:11:57;;;;;;;5.40;4.90;;;22.90;99.90;22.40;99826;;;;594084;242;24054;-78
2023/06/30 10:14:21;;;;;;;6.03;5.10;;;22.90;99.90;22.30;99823;;;;585558;242;23115;-83
2023/06/30 10:16:53;;;;;;;6.97;5.17;;;22.80;99.90;22.30;99829;;;;585003;242;24078;-79
2023/06/30 10:19:21;;;;;;;6.93;5.70;;;22.70;99.90;22.20;99829;;;;585072;242;24080;-85
2023/06/30 10:21:49;;;;;;;6.37;5.77;;;22.60;99.90;22.10;99826;;;;581009;244;24176;-80
2023/06/30 10:24:14;;;;;;;10.10;5.43;;;22.60;99.90;22.20;99841;;;;574038;246;24154;-86
2023/06/30 10:26:42;;;;;;;6.40;5.70;;;22.60;99.90;22.20;99839;;;;583685;242;24133;-82
2023/06/30 10:29:10;;;;;;;7.43;5.17;;;22.60;99.90;22.10;99838;;;;577746;246;24103;-87
2023/06/30 10:31:38;;;;;;;7.43;6.73;;;22.50;99.90;22.10;99835;;;;585435;242;24155;-78
2023/06/30 10:34:06;;;;;;;8.00;5.93;;;22.50;99.90;22.10;99830;;;;593405;242;23173;-78
2023/06/30 10:36:34;;;;;;;11.87;6.07;;;22.60;99.90;22.10;99825;;;;589420;242;24067;-77
2023/06/30 10:39:05;;;;;;;9.23;6.30;;;22.50;99.90;22.00;99832;;;;584065;242;25172;-79
2023/06/30 10:41:31;;;;;;;6.53;6.07;;;22.40;99.90;22.00;99827;;;;583826;242;24063;-79
2023/06/30 10:44:11;;;;;;;6.77;6.27;;;22.40;99.90;22.10;99834;;;;584325;242;24093;-77
2023/06/30 10:46:56;;;;;;;8.00;7.30;;;22.50;99.90;21.90;99833;;;;589684;242;24104;-80
2023/06/30 10:49:36;;;;;;;8.57;7.73;;;22.30;99.90;21.70;99829;;;;584550;242;24047;-80
2023/06/30 10:52:04;;;;;;;7.93;7.13;;;21.80;99.90;21.30;99826;;;;593721;242;24068;-81
2023/06/30 10:54:42;;;;;;;8.77;7.87;;;21.50;99.90;21.10;99831;;;;593163;242;24099;-79
2023/06/30 10:57:14;;;;;;;10.87;8.37;;;21.50;99.90;21.00;99823;;;;593753;242;24045;-80
2023/06/30 10:59:41;;;;;;;8.90;8.10;;;21.50;99.90;21.00;99813;;;;584513;242;24092;-78
2023/06/30 11:02:18;;;;;;;8.43;7.73;;;21.50;99.90;21.10;99822;;;;589292;242;24090;-78
2023/06/30 11:04:46;;;;;;;9.00;7.33;;;21.60;99.90;21.20;99821;;;;589708;241;24092;-78
2023/06/30 11:07:23;;;;;;;7.83;7.17;;;21.60;99.90;21.20;99811;;;;591974;241;24060;-77
2023/06/30 11:09:51;;;;;;;10.27;7.83;;;21.80;99.90;21.30;99809;;;;585895;241;24054;-80
2023/06/30 11:12:19;;;;;;;7.50;6.80;;;21.90;99.90;21.40;99806;;;;585683;241;24092;-78
2023/06/30 11:14:59;;;;;;;7.90;6.77;;;21.90;99.90;21.40;99800;;;;590203;241;24065;-77
2023/06/30 11:17:51;;;;;;;7.20;6.60;;;22.00;99.90;21.50;99796;;;;585069;241;23109;-78
2023/06/30 11:20:26;;;;;;;7.97;7.00;;;22.20;99.90;21.60;99788;;;;589474;241;24082;-76
2023/06/30 11:23:03;;;;;;;7.43;6.83;;;22.30;99.90;21.70;99793;;;;585137;242;24092;-76